createdAt,value
2018-09-13T00:00:45.605Z,12.73
2018-09-13T00:03:13.172Z,10.60
2018-09-13T00:05:40.737Z,10.30
2018-09-13T00:08:08.298Z,10.40
2018-09-13T00:10:36.831Z,12.20
2018-09-13T00:13:04.403Z,10.87
2018-09-13T00:15:31.969Z,12.20
2018-09-13T00:17:59.535Z,10.70
2018-09-13T00:20:27.126Z,10.37
2018-09-13T00:22:54.690Z,11.80
2018-09-13T00:25:22.266Z,11.80
2018-09-13T00:27:49.839Z,10.83
2018-09-13T00:30:20.125Z,11.40
2018-09-13T00:32:49.633Z,16.80
2018-09-13T00:35:17.207Z,10.50
2018-09-13T00:37:44.765Z,9.80
2018-09-13T00:40:13.093Z,10.40
2018-09-13T00:42:40.653Z,9.70
2018-09-13T00:45:08.673Z,10.40
2018-09-13T00:47:36.245Z,10.40
2018-09-13T00:50:03.819Z,10.87
2018-09-13T00:52:33.329Z,11.10
2018-09-13T00:55:00.894Z,11.20
2018-09-13T00:57:29.385Z,9.67
2018-09-13T00:59:56.945Z,10.30
2018-09-13T01:02:24.510Z,10.03
2018-09-13T01:04:52.074Z,10.50
2018-09-13T01:07:19.637Z,10.93
2018-09-13T01:09:47.201Z,10.70
2018-09-13T01:12:14.773Z,10.60
2018-09-13T01:14:43.106Z,10.07
2018-09-13T01:17:11.642Z,11.13
2018-09-13T01:19:39.210Z,10.33
2018-09-13T01:22:06.773Z,9.73
2018-09-13T01:24:35.259Z,10.00
2018-09-13T01:27:02.830Z,10.80
2018-09-13T01:29:30.389Z,10.30
2018-09-13T01:31:57.957Z,10.40
2018-09-13T01:34:25.521Z,10.80
2018-09-13T01:36:53.091Z,10.87
2018-09-13T01:39:20.661Z,10.63
2018-09-13T01:41:48.230Z,10.17
2018-09-13T01:44:15.798Z,10.50
2018-09-13T01:46:43.361Z,10.20
2018-09-13T01:49:10.924Z,10.80
2018-09-13T01:51:40.427Z,11.10
2018-09-13T01:54:07.989Z,11.50
2018-09-13T01:56:35.559Z,11.47
2018-09-13T02:19:15.810Z,10.67
2018-09-13T02:21:43.421Z,11.13
2018-09-13T02:24:10.989Z,10.30
2018-09-13T02:26:38.557Z,10.40
2018-09-13T02:29:06.126Z,10.43
2018-09-13T02:31:33.723Z,11.13
2018-09-13T02:34:01.284Z,12.77
2018-09-13T02:36:28.876Z,11.90
2018-09-13T02:38:56.447Z,12.10
2018-09-13T02:41:24.029Z,12.60
2018-09-13T02:43:51.607Z,12.40
2018-09-13T02:46:21.136Z,12.60
2018-09-13T02:48:48.705Z,12.23
2018-09-13T02:51:17.298Z,12.40
2018-09-13T02:53:46.860Z,12.60
2018-09-13T02:56:15.418Z,12.63
2018-09-13T02:58:42.986Z,13.00
2018-09-13T03:01:10.549Z,13.48
2018-09-13T03:03:38.125Z,13.10
2018-09-13T03:06:05.690Z,12.27
2018-09-13T03:08:33.267Z,12.53
2018-09-13T03:11:00.837Z,11.83
2018-09-13T03:13:29.170Z,12.70
2018-09-13T03:15:56.738Z,12.40
2018-09-13T03:18:24.314Z,11.87
2018-09-13T03:20:51.876Z,11.30
2018-09-13T03:23:21.127Z,11.63
2018-09-13T03:25:49.657Z,12.20
2018-09-13T03:28:17.234Z,11.23
2018-09-13T03:30:44.801Z,11.60
2018-09-13T03:33:13.339Z,11.83
2018-09-13T03:35:41.682Z,11.40
2018-09-13T03:38:09.249Z,11.27
2018-09-13T03:40:37.777Z,11.70
2018-09-13T03:43:05.344Z,10.83
2018-09-13T03:45:32.922Z,10.77
2018-09-13T03:48:00.490Z,11.03
2018-09-13T03:50:28.053Z,10.33
2018-09-13T03:52:55.623Z,11.07
2018-09-13T03:55:23.206Z,11.87
2018-09-13T03:57:50.774Z,10.87
2018-09-13T04:00:20.103Z,10.53
2018-09-13T04:02:47.674Z,10.87
2018-09-13T04:05:15.245Z,11.73
2018-09-13T04:07:42.823Z,12.10
2018-09-13T04:10:10.384Z,12.63
2018-09-13T04:12:38.718Z,12.90
2018-09-13T04:15:06.281Z,13.00
2018-09-13T04:17:33.846Z,12.57
2018-09-13T04:20:01.422Z,11.60
2018-09-13T04:22:29.030Z,11.90
2018-09-13T04:24:56.585Z,12.97
2018-09-13T04:27:24.157Z,12.73
2018-09-13T04:29:51.730Z,11.40
2018-09-13T04:32:19.297Z,12.43
2018-09-13T04:34:47.783Z,11.90
2018-09-13T04:37:17.301Z,11.47
2018-09-13T04:39:46.815Z,11.70
2018-09-13T04:42:15.353Z,10.90
2018-09-13T04:44:42.937Z,11.60
2018-09-13T04:47:10.506Z,11.33
2018-09-13T04:49:38.086Z,12.87
2018-09-13T04:52:05.666Z,12.97
2018-09-13T04:54:33.233Z,11.57
2018-09-13T04:57:00.803Z,11.70
2018-09-13T04:59:30.309Z,11.13
2018-09-13T05:01:57.995Z,12.07
2018-09-13T05:04:26.322Z,12.60
2018-09-13T05:06:53.890Z,11.73
2018-09-13T05:09:22.433Z,13.20
2018-09-13T05:11:50.006Z,12.57
2018-09-13T05:14:17.569Z,13.47
2018-09-13T05:16:45.142Z,12.10
2018-09-13T05:19:13.670Z,13.47
2018-09-13T05:21:42.983Z,13.57
2018-09-13T05:24:11.376Z,13.60
2018-09-13T05:26:38.971Z,13.63
2018-09-13T05:29:06.514Z,13.13
2018-09-13T05:31:34.082Z,13.27
2018-09-13T05:34:01.658Z,13.07
2018-09-13T05:36:29.222Z,13.30
2018-09-13T05:38:56.854Z,12.10
2018-09-13T05:41:24.388Z,12.50
2018-09-13T05:43:51.949Z,13.53
2018-09-13T05:46:19.522Z,13.20
2018-09-13T05:48:49.042Z,11.83
2018-09-13T05:51:16.677Z,12.13
2018-09-13T05:53:44.215Z,12.20
2018-09-13T05:56:11.789Z,11.20
2018-09-13T05:58:39.350Z,11.47
2018-09-13T06:01:06.920Z,12.10
2018-09-13T06:03:34.481Z,11.73
2018-09-13T06:06:02.041Z,11.73
2018-09-13T06:08:29.601Z,11.30
2018-09-13T06:10:58.121Z,11.23
2018-09-13T06:13:25.702Z,11.80
2018-09-13T06:15:53.275Z,10.60
2018-09-13T06:18:20.842Z,11.87
2018-09-13T06:20:48.410Z,11.00
2018-09-13T06:23:15.977Z,10.20
2018-09-13T06:25:43.550Z,10.17
2018-09-13T06:28:13.856Z,11.77
2018-09-13T06:30:41.430Z,10.60
2018-09-13T06:33:09.001Z,10.83
2018-09-13T06:35:38.315Z,10.87
2018-09-13T06:38:07.838Z,10.67
2018-09-13T06:40:35.406Z,10.67
2018-09-13T06:43:02.969Z,11.43
2018-09-13T06:45:30.546Z,10.97
2018-09-13T06:47:58.117Z,10.70
2018-09-13T06:50:25.702Z,10.67
2018-09-13T06:52:53.270Z,10.83
2018-09-13T06:55:21.844Z,11.33
2018-09-13T06:57:49.423Z,11.80
2018-09-13T07:00:17.930Z,12.33
2018-09-13T07:02:45.503Z,11.47
2018-09-13T07:05:13.076Z,11.73
2018-09-13T07:07:41.609Z,10.93
2018-09-13T07:10:09.192Z,12.67
2018-09-13T07:12:36.759Z,11.70
2018-09-13T07:15:04.337Z,11.90
2018-09-13T07:17:31.910Z,11.70
2018-09-13T07:19:59.485Z,13.23
2018-09-13T07:22:27.054Z,11.60
2018-09-13T07:24:55.555Z,11.20
2018-09-13T07:27:23.129Z,11.60
2018-09-13T07:29:51.457Z,12.20
2018-09-13T07:32:19.021Z,10.50
2018-09-13T07:34:46.604Z,12.27
2018-09-13T07:37:16.105Z,11.43
2018-09-13T07:39:43.690Z,12.43
2018-09-13T07:42:12.213Z,12.20
2018-09-13T07:44:39.783Z,10.87
2018-09-13T07:47:07.353Z,11.03
2018-09-13T07:49:34.928Z,11.67
2018-09-13T07:52:03.278Z,11.60
2018-09-13T07:54:32.796Z,11.43
2018-09-13T07:57:00.368Z,10.70
2018-09-13T07:59:27.997Z,10.23
2018-09-13T08:01:55.558Z,9.63
2018-09-13T08:04:23.117Z,8.63
2018-09-13T08:06:50.680Z,9.20
2018-09-13T08:09:18.243Z,9.23
2018-09-13T08:11:45.843Z,9.47
2018-09-13T08:14:13.398Z,10.17
2018-09-13T08:16:40.967Z,9.30
2018-09-13T08:19:08.542Z,9.23
2018-09-13T08:21:38.067Z,9.13
2018-09-13T08:24:05.665Z,8.27
2018-09-13T08:26:33.281Z,9.90
2018-09-13T08:29:00.845Z,8.40
2018-09-13T08:31:28.432Z,8.73
2018-09-13T08:33:56.031Z,12.80
2018-09-13T08:36:24.527Z,8.57
2018-09-13T08:38:52.115Z,8.70
2018-09-13T08:41:20.462Z,9.13
2018-09-13T08:43:48.047Z,8.10
2018-09-13T08:46:16.381Z,8.97
2018-09-13T08:48:43.973Z,8.00
2018-09-13T08:51:11.538Z,8.43
2018-09-13T08:53:40.060Z,9.40
2018-09-13T08:56:07.637Z,8.00
2018-09-13T08:58:35.209Z,8.57
2018-09-13T09:01:02.787Z,8.07
2018-09-13T09:03:31.121Z,9.23
2018-09-13T09:05:58.726Z,9.20
2018-09-13T09:08:26.279Z,9.20
2018-09-13T09:10:55.569Z,9.53
2018-09-13T09:13:23.163Z,9.80
2018-09-13T09:15:51.682Z,10.67
2018-09-13T09:18:19.253Z,11.40
2018-09-13T09:20:49.310Z,11.60
2018-09-13T09:23:19.392Z,11.03
2018-09-13T09:25:46.962Z,10.90
2018-09-13T09:28:14.537Z,10.37
2018-09-13T09:30:42.113Z,11.20
2018-09-13T09:33:09.693Z,11.80
2018-09-13T09:35:37.266Z,11.53
2018-09-13T09:38:04.838Z,11.60
2018-09-13T09:40:33.372Z,12.17
2018-09-13T09:43:03.611Z,11.10
2018-09-13T09:45:31.169Z,11.00
2018-09-13T09:47:58.813Z,10.60
2018-09-13T09:50:27.135Z,10.47
2018-09-13T09:52:55.482Z,11.73
2018-09-13T09:55:23.061Z,11.20
2018-09-13T09:57:50.662Z,10.70
2018-09-13T10:00:18.233Z,9.83
2018-09-13T10:02:45.803Z,10.70
2018-09-13T10:05:14.981Z,8.83
2018-09-13T10:07:42.566Z,10.40
2018-09-13T10:10:10.151Z,9.43
2018-09-13T10:12:37.725Z,9.20
2018-09-13T10:15:05.331Z,9.20
2018-09-13T10:17:39.566Z,9.30
2018-09-13T10:23:26.648Z,9.32
2018-09-13T10:26:00.859Z,8.77
2018-09-13T10:28:45.719Z,9.13
2018-09-13T10:31:19.654Z,10.33
2018-09-13T10:34:06.027Z,8.53
2018-09-13T10:39:43.553Z,9.85
2018-09-13T10:42:16.846Z,9.60
2018-09-13T10:45:05.012Z,9.20
2018-09-13T10:47:33.299Z,8.97
2018-09-13T10:50:17.436Z,8.30
2018-09-13T10:52:45.390Z,8.00
2018-09-13T10:55:13.006Z,8.10
2018-09-13T10:57:40.602Z,8.00
2018-09-13T11:00:09.462Z,9.02
2018-09-13T11:02:45.246Z,8.53
2018-09-13T11:05:12.882Z,7.83
2018-09-13T11:07:55.873Z,8.40
2018-09-13T11:10:27.351Z,8.10
2018-09-13T11:12:54.970Z,7.63
2018-09-13T11:15:23.391Z,7.73
2018-09-13T11:17:51.109Z,6.80
2018-09-13T11:20:18.846Z,6.77
2018-09-13T11:22:48.612Z,7.27
2018-09-13T11:25:23.494Z,7.87
2018-09-13T11:27:52.002Z,8.00
2018-09-13T11:30:26.361Z,7.23
2018-09-13T11:32:54.713Z,7.50
2018-09-13T11:35:22.346Z,7.57
2018-09-13T11:38:02.433Z,6.87
2018-09-13T11:40:31.291Z,6.83
2018-09-13T11:42:58.720Z,7.27
2018-09-13T11:45:27.073Z,7.57
2018-09-13T11:47:56.543Z,6.70
2018-09-13T11:50:24.778Z,6.07
2018-09-13T11:55:45.239Z,6.83
2018-09-13T11:58:16.389Z,7.00
2018-09-13T12:00:47.636Z,6.50
2018-09-13T12:03:17.840Z,7.80
2018-09-13T12:08:35.798Z,7.73
2018-09-13T12:11:04.434Z,7.40
2018-09-13T12:13:35.139Z,7.80
2018-09-13T12:16:03.746Z,7.00
2018-09-13T12:18:33.924Z,7.03
2018-09-13T12:21:01.701Z,7.70
2018-09-13T12:23:29.359Z,7.10
2018-09-13T12:25:56.962Z,7.30
2018-09-13T12:28:25.607Z,6.97
2018-09-13T12:30:53.718Z,7.57
2018-09-13T12:33:21.327Z,7.00
2018-09-13T12:35:48.923Z,7.93
2018-09-13T12:38:16.510Z,7.63
2018-09-13T12:40:45.092Z,6.87
2018-09-13T12:43:13.610Z,7.67
2018-09-13T12:45:41.202Z,7.53
2018-09-13T12:48:08.804Z,6.87
2018-09-13T12:50:36.448Z,6.90
2018-09-13T12:53:04.100Z,7.70
2018-09-13T12:55:31.717Z,6.30
2018-09-13T12:58:00.097Z,6.20
2018-09-13T13:00:27.703Z,6.67
2018-09-13T13:02:55.306Z,7.00
2018-09-13T13:05:23.678Z,6.50
2018-09-13T13:07:52.617Z,6.30
2018-09-13T13:10:20.208Z,6.10
2018-09-13T13:12:47.799Z,6.57
2018-09-13T13:15:15.380Z,6.30
2018-09-13T13:17:42.988Z,6.50
2018-09-13T13:20:10.583Z,6.80
2018-09-13T13:22:38.163Z,6.40
2018-09-13T13:25:05.742Z,6.53
2018-09-13T13:27:33.385Z,6.90
2018-09-13T13:30:00.936Z,6.37
2018-09-13T13:32:28.558Z,5.80
2018-09-13T13:34:56.135Z,6.20
2018-09-13T13:37:27.326Z,5.90
2018-09-13T13:39:56.707Z,6.10
2018-09-13T13:42:24.319Z,5.50
2018-09-13T13:44:51.906Z,6.27
2018-09-13T13:47:19.594Z,6.90
2018-09-13T13:49:49.925Z,6.47
2018-09-13T13:52:17.582Z,7.37
2018-09-13T13:54:45.161Z,8.10
2018-09-13T13:57:12.814Z,7.60
2018-09-13T13:59:41.227Z,10.80
2018-09-13T14:02:09.244Z,9.50
2018-09-13T14:04:44.347Z,8.10
2018-09-13T14:07:11.941Z,8.10
2018-09-13T14:09:39.601Z,8.10
2018-09-13T14:12:07.229Z,8.03
2018-09-13T14:14:34.822Z,7.50
2018-09-13T14:17:03.172Z,7.97
2018-09-13T14:19:31.683Z,8.60
2018-09-13T14:22:00.078Z,10.90
2018-09-13T14:24:27.666Z,8.20
2018-09-13T14:26:56.238Z,7.93
2018-09-13T14:29:23.916Z,8.10
2018-09-13T14:31:51.508Z,8.43
2018-09-13T14:34:19.256Z,8.20
2018-09-13T14:36:46.965Z,8.97
2018-09-13T14:39:14.616Z,8.37
2018-09-13T14:41:42.328Z,8.30
2018-09-13T14:44:10.045Z,8.63
2018-09-13T14:46:37.706Z,9.63
2018-09-13T14:49:05.318Z,8.77
2018-09-13T14:51:32.923Z,8.90
2018-09-13T14:54:01.485Z,8.93
2018-09-13T14:56:29.084Z,9.40
2018-09-13T14:58:56.688Z,8.43
2018-09-13T15:01:26.106Z,9.90
2018-09-13T15:03:53.733Z,9.17
2018-09-13T15:06:21.351Z,9.37
2018-09-13T15:08:48.978Z,9.63
2018-09-13T15:11:16.639Z,10.87
2018-09-13T15:13:45.232Z,11.37
2018-09-13T15:16:12.881Z,10.30
2018-09-13T15:18:40.475Z,11.70
2018-09-13T15:21:08.682Z,11.47
2018-09-13T15:23:38.968Z,10.97
2018-09-13T15:26:06.614Z,11.00
2018-09-13T15:28:34.234Z,10.40
2018-09-13T15:31:01.884Z,9.40
2018-09-13T15:33:29.441Z,9.93
2018-09-13T15:35:57.113Z,10.77
2018-09-13T15:38:25.484Z,11.57
2018-09-13T15:40:53.858Z,11.27
2018-09-13T15:43:24.233Z,12.67
2018-09-13T15:45:51.875Z,11.47
2018-09-13T15:48:19.721Z,12.17
2018-09-13T15:50:47.314Z,11.30
2018-09-13T15:53:16.869Z,10.37
2018-09-13T15:55:44.446Z,12.23
2018-09-13T15:58:12.041Z,11.93
2018-09-13T16:00:39.628Z,10.60
2018-09-13T16:03:07.248Z,11.73
2018-09-13T16:05:34.874Z,11.20
2018-09-13T16:08:02.540Z,12.60
2018-09-13T16:10:30.127Z,11.70
2018-09-13T16:12:58.754Z,11.50
2018-09-13T16:15:26.242Z,11.17
2018-09-13T16:17:54.151Z,12.70
2018-09-13T16:20:21.868Z,14.03
2018-09-13T16:22:49.458Z,13.43
2018-09-13T16:25:17.050Z,12.63
2018-09-13T16:27:44.668Z,12.20
2018-09-13T16:30:14.886Z,12.43
2018-09-13T16:32:42.653Z,12.70
2018-09-13T16:35:11.151Z,13.00
2018-09-13T16:37:39.410Z,13.50
2018-09-13T16:40:07.010Z,12.73
2018-09-13T16:42:40.218Z,13.20
2018-09-13T16:45:08.726Z,15.33
2018-09-13T16:50:30.783Z,11.20
2018-09-13T16:52:58.351Z,10.87
2018-09-13T16:55:25.930Z,17.40
2018-09-13T16:57:53.514Z,11.80
2018-09-13T17:00:21.081Z,11.07
2018-09-13T17:02:48.652Z,9.43
2018-09-13T17:05:16.225Z,13.67
2018-09-13T17:07:43.836Z,9.73
2018-09-13T17:10:12.579Z,9.50
2018-09-13T17:12:40.354Z,9.93
2018-09-13T17:15:07.929Z,11.70
2018-09-13T17:17:35.504Z,8.70
2018-09-13T17:20:03.078Z,8.47
2018-09-13T17:22:31.582Z,8.10
2018-09-13T17:24:59.223Z,8.77
2018-09-13T17:27:27.511Z,9.03
2018-09-13T17:29:55.085Z,8.57
2018-09-13T17:32:22.654Z,9.37
2018-09-13T17:34:50.224Z,10.70
2018-09-13T17:37:18.565Z,10.67
2018-09-13T17:39:46.130Z,9.60
2018-09-13T17:42:13.722Z,10.30
2018-09-13T17:44:41.298Z,11.63
2018-09-13T17:47:08.866Z,11.07
2018-09-13T17:49:36.441Z,11.50
2018-09-13T17:52:04.033Z,11.13
2018-09-13T17:54:31.610Z,12.10
2018-09-13T17:56:59.178Z,13.07
2018-09-13T17:59:26.759Z,13.87
2018-09-13T18:01:54.334Z,12.83
2018-09-13T18:04:21.904Z,13.07
2018-09-13T18:06:51.413Z,13.63
2018-09-13T18:09:19.017Z,14.70
2018-09-13T18:11:48.509Z,13.33
2018-09-13T18:14:16.841Z,12.97
2018-09-13T18:16:44.410Z,12.93
2018-09-13T18:19:13.910Z,12.23
2018-09-13T18:21:41.480Z,13.97
2018-09-13T18:24:09.075Z,13.47
2018-09-13T18:26:36.654Z,13.00
2018-09-13T18:29:04.228Z,12.37
2018-09-13T18:31:33.920Z,12.40
2018-09-13T18:34:03.273Z,11.80
2018-09-13T18:36:31.605Z,11.67
2018-09-13T18:38:59.946Z,12.80
2018-09-13T18:41:27.550Z,13.93
2018-09-13T18:43:55.122Z,12.10
2018-09-13T18:46:22.726Z,13.03
2018-09-13T18:48:50.303Z,12.27
2018-09-13T18:51:18.800Z,11.80
2018-09-13T18:53:47.309Z,12.27
2018-09-13T18:56:15.885Z,11.83
2018-09-13T18:58:44.411Z,12.53
2018-09-13T19:01:12.951Z,12.57
2018-09-13T19:03:41.285Z,11.33
2018-09-13T19:06:08.859Z,13.00
2018-09-13T19:08:38.357Z,12.80
2018-09-13T19:11:05.941Z,10.70
2018-09-13T19:13:33.517Z,10.30
2018-09-13T19:16:01.145Z,10.57
2018-09-13T19:18:28.678Z,10.20
2018-09-13T19:20:57.218Z,10.03
2018-09-13T19:23:24.811Z,10.20
2018-09-13T19:25:53.371Z,11.40
2018-09-13T19:28:21.930Z,10.10
2018-09-13T19:30:49.503Z,11.30
2018-09-13T19:33:17.075Z,9.67
2018-09-13T19:35:44.634Z,7.77
2018-09-13T19:38:13.110Z,6.13
2018-09-13T19:40:40.681Z,7.07
2018-09-13T19:43:08.266Z,7.00
2018-09-13T19:45:35.826Z,6.50
2018-09-13T19:48:03.403Z,10.30
2018-09-13T19:50:32.018Z,7.33
2018-09-13T19:52:59.547Z,7.80
2018-09-13T19:55:27.113Z,5.87
2018-09-13T19:57:55.450Z,5.43
2018-09-13T20:00:23.021Z,6.70
2018-09-13T20:02:50.577Z,6.57
2018-09-13T20:05:18.142Z,6.90
2018-09-13T20:07:47.389Z,7.93
2018-09-13T20:10:14.954Z,7.20
2018-09-13T20:12:42.518Z,8.50
2018-09-13T20:15:11.814Z,8.40
2018-09-13T20:17:39.390Z,7.87
2018-09-13T20:20:06.981Z,8.70
2018-09-13T20:22:34.541Z,8.73
2018-09-13T20:25:02.129Z,9.90
2018-09-13T20:27:29.699Z,9.13
2018-09-13T20:29:57.263Z,8.27
2018-09-13T20:32:25.763Z,9.70
2018-09-13T20:34:53.329Z,10.13
2018-09-13T20:37:20.895Z,9.63
2018-09-13T20:39:49.232Z,9.73
2018-09-13T20:42:16.801Z,10.70
2018-09-13T20:44:44.366Z,10.00
2018-09-13T20:47:13.851Z,9.10
2018-09-13T20:49:41.423Z,9.40
2018-09-13T20:52:08.985Z,8.90
2018-09-13T20:54:36.585Z,7.43
2018-09-13T20:57:04.154Z,7.60
2018-09-13T20:59:31.722Z,7.60
2018-09-13T21:01:59.289Z,6.17
2018-09-13T21:04:26.854Z,7.17
2018-09-13T21:06:54.440Z,6.67
2018-09-13T21:09:21.999Z,5.43
2018-09-13T21:11:49.572Z,5.07
2018-09-13T21:14:19.869Z,5.53
2018-09-13T21:16:49.416Z,5.77
2018-09-13T21:19:17.134Z,5.30
2018-09-13T21:21:45.493Z,5.10
2018-09-13T21:24:13.124Z,5.47
2018-09-13T21:26:40.659Z,5.73
2018-09-13T21:29:08.223Z,5.60
2018-09-13T21:31:35.790Z,5.30
2018-09-13T21:34:03.357Z,5.00
2018-09-13T21:36:30.917Z,6.57
2018-09-13T21:38:58.528Z,23.23
2018-09-13T21:41:26.078Z,23.63
2018-09-13T21:43:53.641Z,28.53
2018-09-13T21:46:21.227Z,28.53
2018-09-13T21:48:48.798Z,28.00
2018-09-13T21:51:16.368Z,26.33
2018-09-13T21:53:43.939Z,26.80
2018-09-13T21:56:11.509Z,27.80
2018-09-13T21:58:39.079Z,26.47
2018-09-13T22:01:07.545Z,24.90
2018-09-13T22:03:35.106Z,24.80
2018-09-13T22:06:02.677Z,23.60
2018-09-13T22:08:30.246Z,20.63
2018-09-13T22:10:58.586Z,21.37
2018-09-13T22:13:26.162Z,19.93
2018-09-13T22:15:53.731Z,20.43
2018-09-13T22:18:21.293Z,22.10
2018-09-13T22:20:49.625Z,20.80
2018-09-13T22:23:18.150Z,19.73
2018-09-13T22:25:45.722Z,15.70
2018-09-13T22:28:13.289Z,10.80
2018-09-13T22:30:40.850Z,9.30
2018-09-13T22:33:08.415Z,8.97
2018-09-13T22:35:35.980Z,9.63
2018-09-13T22:38:03.549Z,10.27
2018-09-13T22:40:33.009Z,8.77
2018-09-13T22:43:02.525Z,8.93
2018-09-13T22:45:30.085Z,7.93
2018-09-13T22:47:57.648Z,8.23
2018-09-13T22:50:25.213Z,7.27
2018-09-13T22:52:52.774Z,6.57
2018-09-13T22:55:21.302Z,6.70
2018-09-13T22:57:48.870Z,6.40
2018-09-13T23:00:17.198Z,5.50
2018-09-13T23:02:44.761Z,5.20
2018-09-13T23:05:12.338Z,4.73
2018-09-13T23:30:42.742Z,4.20
2018-09-13T23:33:10.302Z,4.60
2018-09-13T23:35:37.833Z,4.57
2018-09-13T23:38:06.149Z,3.93
2018-09-13T23:40:33.753Z,4.50
2018-09-13T23:43:02.206Z,4.93
2018-09-13T23:45:29.764Z,4.50
2018-09-13T23:47:57.303Z,7.70
2018-09-13T23:50:24.862Z,4.47
2018-09-13T23:52:52.393Z,5.80
2018-09-13T23:55:19.953Z,4.47
2018-09-13T23:57:47.481Z,4.10
